createdAt,value
2018-08-03T00:00:42.133Z,24.66
2018-08-03T00:02:46.958Z,24.57
2018-08-03T00:04:51.845Z,24.63
2018-08-03T00:06:56.597Z,24.56
2018-08-03T00:09:01.491Z,24.55
2018-08-03T00:11:06.559Z,24.43
2018-08-03T00:13:11.596Z,24.45
2018-08-03T00:15:16.344Z,24.40
2018-08-03T00:17:21.177Z,24.31
2018-08-03T00:19:26.053Z,24.35
2018-08-03T00:21:31.164Z,24.34
2018-08-03T00:23:36.115Z,24.27
2018-08-03T00:25:40.887Z,24.37
2018-08-03T00:27:45.990Z,24.27
2018-08-03T00:29:50.720Z,24.21
2018-08-03T00:31:55.724Z,24.20
2018-08-03T00:34:00.468Z,24.14
2018-08-03T00:36:05.652Z,24.06
2018-08-03T00:38:10.699Z,23.81
2018-08-03T00:40:15.479Z,24.07
2018-08-03T00:42:20.163Z,24.11
2018-08-03T00:44:25.159Z,24.07
2018-08-03T00:46:30.262Z,23.92
2018-08-03T00:48:34.955Z,23.91
2018-08-03T00:50:39.697Z,23.98
2018-08-03T00:52:44.695Z,23.93
2018-08-03T00:54:49.387Z,23.80
2018-08-03T00:56:54.094Z,23.74
2018-08-03T00:58:58.855Z,23.71
2018-08-03T01:01:03.781Z,23.72
2018-08-03T01:03:09.378Z,23.62
2018-08-03T01:05:14.216Z,23.61
2018-08-03T01:07:19.233Z,23.51
2018-08-03T01:09:23.988Z,23.57
2018-08-03T01:11:28.840Z,23.49
2018-08-03T01:13:33.629Z,23.52
2018-08-03T01:15:38.524Z,23.50
2018-08-03T01:17:43.371Z,23.51
2018-08-03T01:19:48.166Z,23.41
2018-08-03T01:21:53.065Z,23.41
2018-08-03T01:23:57.797Z,23.31
2018-08-03T01:26:02.541Z,23.34
2018-08-03T01:28:09.160Z,23.33
2018-08-03T01:30:14.122Z,23.22
2018-08-03T01:32:18.942Z,23.13
2018-08-03T01:34:23.952Z,23.19
2018-08-03T01:36:29.008Z,23.17
2018-08-03T01:38:33.828Z,23.16
2018-08-03T01:40:39.089Z,23.05
2018-08-03T01:42:43.851Z,23.08
2018-08-03T01:44:49.076Z,23.15
2018-08-03T01:46:53.807Z,22.99
2018-08-03T01:48:58.526Z,22.97
2018-08-03T01:51:03.219Z,22.89
2018-08-03T01:53:08.013Z,22.89
2018-08-03T01:55:12.751Z,22.86
2018-08-03T01:57:17.515Z,22.81
2018-08-03T01:59:22.312Z,22.40
2018-08-03T02:01:27.244Z,22.72
2018-08-03T02:03:32.066Z,22.70
2018-08-03T02:05:37.024Z,22.70
2018-08-03T02:07:41.778Z,22.72
2018-08-03T02:09:46.827Z,22.72
2018-08-03T02:11:51.695Z,22.71
2018-08-03T02:13:56.551Z,22.67
2018-08-03T02:16:01.671Z,22.76
2018-08-03T02:18:06.663Z,22.78
2018-08-03T02:20:11.481Z,22.76
2018-08-03T02:22:16.243Z,22.67
2018-08-03T02:24:21.026Z,22.63
2018-08-03T02:26:26.569Z,22.56
2018-08-03T02:28:31.813Z,22.53
2018-08-03T02:30:36.649Z,22.55
2018-08-03T02:32:41.790Z,22.60
2018-08-03T02:34:46.757Z,22.60
2018-08-03T02:36:51.648Z,22.62
2018-08-03T02:38:56.438Z,22.55
2018-08-03T02:41:01.176Z,22.53
2018-08-03T02:43:05.944Z,22.51
2018-08-03T02:45:10.812Z,22.48
2018-08-03T02:47:15.493Z,22.41
2018-08-03T02:49:20.256Z,22.31
2018-08-03T02:51:24.984Z,22.45
2018-08-03T02:53:29.845Z,22.42
2018-08-03T02:55:34.543Z,22.37
2018-08-03T02:57:39.434Z,22.44
2018-08-03T02:59:44.236Z,22.40
2018-08-03T03:01:49.144Z,22.27
2018-08-03T03:03:54.079Z,22.30
2018-08-03T03:05:58.971Z,22.40
2018-08-03T03:08:03.619Z,22.48
2018-08-03T03:10:08.444Z,22.27
2018-08-03T03:12:13.229Z,22.24
2018-08-03T03:14:18.021Z,22.33
2018-08-03T03:16:23.089Z,22.24
2018-08-03T03:18:28.018Z,22.31
2018-08-03T03:20:33.136Z,22.19
2018-08-03T03:22:37.737Z,22.34
2018-08-03T03:24:42.544Z,22.25
2018-08-03T03:26:47.282Z,22.21
2018-08-03T03:28:52.182Z,22.17
2018-08-03T03:30:56.965Z,22.14
2018-08-03T03:33:01.756Z,22.16
2018-08-03T03:35:06.973Z,22.12
2018-08-03T03:37:11.754Z,22.21
2018-08-03T03:39:16.491Z,22.15
2018-08-03T03:41:21.415Z,22.12
2018-08-03T03:43:26.199Z,22.17
2018-08-03T03:45:31.153Z,22.15
2018-08-03T03:47:35.963Z,22.13
2018-08-03T03:49:40.713Z,22.11
2018-08-03T03:51:45.445Z,22.15
2018-08-03T03:53:50.202Z,22.09
2018-08-03T03:55:54.964Z,22.21
2018-08-03T03:57:59.711Z,22.26
2018-08-03T04:00:05.280Z,22.20
2018-08-03T04:02:10.311Z,22.19
2018-08-03T04:04:15.091Z,22.14
2018-08-03T04:06:20.575Z,22.10
2018-08-03T04:08:25.622Z,22.14
2018-08-03T04:10:30.350Z,22.10
2018-08-03T04:12:35.293Z,22.01
2018-08-03T04:14:40.306Z,22.02
2018-08-03T04:16:45.329Z,22.05
2018-08-03T04:18:50.401Z,22.08
2018-08-03T04:20:55.321Z,22.07
2018-08-03T04:23:00.327Z,22.03
2018-08-03T04:25:05.246Z,21.98
2018-08-03T04:27:10.067Z,21.98
2018-08-03T04:29:14.920Z,22.01
2018-08-03T04:31:19.738Z,21.93
2018-08-03T04:33:24.572Z,22.04
2018-08-03T04:35:29.442Z,22.05
2018-08-03T04:37:34.471Z,22.12
2018-08-03T04:39:39.134Z,22.03
2018-08-03T04:41:44.168Z,22.07
2018-08-03T04:43:49.029Z,22.13
2018-08-03T04:45:53.873Z,22.02
2018-08-03T04:47:58.783Z,22.06
2018-08-03T04:50:03.736Z,22.08
2018-08-03T04:52:08.572Z,22.15
2018-08-03T04:54:13.589Z,22.18
2018-08-03T04:56:18.465Z,22.18
2018-08-03T04:58:23.344Z,22.24
2018-08-03T05:00:28.340Z,22.23
2018-08-03T05:02:33.494Z,22.17
2018-08-03T05:04:38.217Z,22.16
2018-08-03T05:06:42.928Z,22.18
2018-08-03T05:08:47.841Z,22.20
2018-08-03T05:10:52.841Z,22.21
2018-08-03T05:12:57.794Z,22.20
2018-08-03T05:15:02.738Z,22.16
2018-08-03T05:17:07.655Z,22.19
2018-08-03T05:19:12.786Z,22.25
2018-08-03T05:21:17.672Z,22.24
2018-08-03T05:23:22.451Z,22.29
2018-08-03T05:25:27.455Z,22.29
2018-08-03T05:27:32.763Z,22.29
2018-08-03T05:29:37.832Z,22.37
2018-08-03T05:31:42.961Z,22.38
2018-08-03T05:33:47.784Z,22.39
2018-08-03T05:35:52.593Z,22.38
2018-08-03T05:37:57.324Z,22.43
2018-08-03T05:40:02.149Z,22.47
2018-08-03T05:42:07.157Z,22.54
2018-08-03T05:44:11.996Z,22.56
2018-08-03T05:46:16.812Z,22.64
2018-08-03T05:48:21.551Z,22.62
2018-08-03T05:50:26.248Z,22.67
2018-08-03T05:52:31.031Z,22.70
2018-08-03T05:54:35.920Z,22.71
2018-08-03T05:56:40.953Z,22.77
2018-08-03T05:58:46.160Z,22.81
2018-08-03T06:00:52.006Z,22.85
2018-08-03T06:02:56.889Z,22.88
2018-08-03T06:05:01.590Z,22.92
2018-08-03T06:07:06.450Z,22.97
2018-08-03T06:09:11.996Z,23.03
2018-08-03T06:11:16.808Z,23.07
2018-08-03T06:13:21.863Z,23.14
2018-08-03T06:15:27.088Z,23.19
2018-08-03T06:17:32.134Z,23.25
2018-08-03T06:19:37.191Z,23.31
2018-08-03T06:21:41.945Z,23.34
2018-08-03T06:23:46.685Z,23.40
2018-08-03T06:25:51.580Z,23.46
2018-08-03T06:27:56.370Z,23.50
2018-08-03T06:30:01.179Z,23.57
2018-08-03T06:32:06.284Z,23.63
2018-08-03T06:34:11.398Z,23.70
2018-08-03T06:36:16.292Z,23.76
2018-08-03T06:38:21.616Z,23.80
2018-08-03T06:40:26.480Z,23.84
2018-08-03T06:42:31.547Z,23.88
2018-08-03T06:44:36.389Z,23.94
2018-08-03T06:46:41.929Z,24.00
2018-08-03T06:48:46.785Z,24.05
2018-08-03T06:50:51.548Z,24.14
2018-08-03T06:52:56.802Z,24.20
2018-08-03T06:55:10.547Z,24.28
2018-08-03T06:57:19.973Z,24.32
2018-08-03T06:59:24.958Z,24.40
2018-08-03T07:01:29.894Z,24.47
2018-08-03T07:03:34.882Z,24.55
2018-08-03T07:05:39.616Z,24.59
2018-08-03T07:07:44.421Z,24.66
2018-08-03T07:09:49.581Z,24.71
2018-08-03T07:11:54.316Z,24.76
2018-08-03T07:13:59.115Z,24.83
2018-08-03T07:16:04.057Z,25.02
2018-08-03T07:18:09.221Z,25.05
2018-08-03T07:22:13.377Z,25.14
2018-08-03T07:24:18.125Z,25.21
2018-08-03T07:26:23.670Z,25.31
2018-08-03T07:28:28.622Z,25.38
2018-08-03T07:30:33.463Z,25.45
2018-08-03T07:32:38.258Z,25.54
2018-08-03T07:34:43.108Z,25.52
2018-08-03T07:36:47.966Z,25.62
2018-08-03T07:38:52.731Z,25.64
2018-08-03T07:40:57.569Z,25.81
2018-08-03T07:43:02.588Z,25.95
2018-08-03T07:45:08.291Z,26.03
2018-08-03T07:47:13.079Z,26.08
2018-08-03T07:49:18.008Z,26.16
2018-08-03T07:51:22.905Z,26.28
2018-08-03T07:53:27.634Z,26.39
2018-08-03T07:55:32.418Z,26.46
2018-08-03T07:57:37.296Z,26.06
2018-08-03T07:59:42.256Z,26.52
2018-08-03T08:01:47.131Z,26.47
2018-08-03T08:03:53.193Z,26.62
2018-08-03T08:05:58.053Z,26.78
2018-08-03T08:08:02.935Z,26.75
2018-08-03T08:10:07.955Z,26.81
2018-08-03T08:12:12.785Z,26.91
2018-08-03T08:14:17.664Z,27.00
2018-08-03T08:16:22.710Z,27.22
2018-08-03T08:18:28.144Z,27.20
2018-08-03T08:20:33.255Z,27.23
2018-08-03T08:22:39.083Z,27.31
2018-08-03T08:24:43.929Z,27.43
2018-08-03T08:26:48.828Z,27.39
2018-08-03T08:28:53.910Z,27.36
2018-08-03T08:30:58.875Z,27.54
2018-08-03T08:33:03.724Z,27.67
2018-08-03T08:35:08.732Z,27.45
2018-08-03T08:37:13.700Z,27.69
2018-08-03T08:39:18.676Z,27.73
2018-08-03T08:41:23.549Z,27.90
2018-08-03T08:43:28.533Z,27.86
2018-08-03T08:45:33.630Z,27.89
2018-08-03T08:47:38.779Z,27.88
2018-08-03T08:49:43.560Z,28.04
2018-08-03T08:51:48.419Z,28.09
2018-08-03T08:53:52.761Z,28.17
2018-08-03T08:55:57.622Z,28.26
2018-08-03T08:58:02.486Z,28.31
2018-08-03T09:00:07.399Z,28.42
2018-08-03T09:02:12.273Z,28.74
2018-08-03T09:04:17.011Z,28.69
2018-08-03T09:06:22.079Z,28.69
2018-08-03T09:08:26.891Z,28.83
2018-08-03T09:10:31.952Z,28.81
2018-08-03T09:12:37.482Z,28.85
2018-08-03T09:14:42.318Z,28.92
2018-08-03T09:16:47.521Z,29.10
2018-08-03T09:18:53.130Z,29.13
2018-08-03T09:20:57.986Z,29.52
2018-08-03T09:23:02.875Z,29.37
2018-08-03T09:25:08.080Z,29.33
2018-08-03T09:27:13.952Z,29.57
2018-08-03T09:29:18.773Z,29.34
2018-08-03T09:31:23.927Z,29.52
2018-08-03T09:33:29.015Z,29.54
2018-08-03T09:35:34.064Z,29.52
2018-08-03T09:37:38.802Z,29.49
2018-08-03T09:39:43.858Z,29.61
2018-08-03T09:41:49.084Z,29.65
2018-08-03T09:43:54.097Z,29.69
2018-08-03T09:45:58.907Z,30.03
2018-08-03T09:48:03.894Z,29.85
2018-08-03T09:50:08.709Z,29.83
2018-08-03T09:52:13.443Z,29.96
2018-08-03T09:54:18.574Z,30.26
2018-08-03T09:56:30.082Z,30.24
2018-08-03T09:58:35.115Z,30.48
2018-08-03T10:00:45.036Z,30.54
2018-08-03T10:02:49.818Z,30.66
2018-08-03T10:04:54.568Z,30.74
2018-08-03T10:06:59.418Z,30.84
2018-08-03T10:09:05.767Z,30.96
2018-08-03T10:11:11.466Z,30.99
2018-08-03T10:13:16.977Z,31.09
2018-08-03T10:15:21.761Z,31.04
2018-08-03T10:17:27.150Z,31.07
2018-08-03T10:19:32.198Z,30.88
2018-08-03T10:21:37.086Z,30.90
2018-08-03T10:23:41.946Z,30.84
2018-08-03T10:25:46.636Z,30.56
2018-08-03T10:27:51.420Z,30.88
2018-08-03T10:29:56.496Z,30.92
2018-08-03T10:32:01.736Z,30.99
2018-08-03T10:34:06.889Z,31.04
2018-08-03T10:36:11.718Z,31.07
2018-08-03T10:38:16.551Z,31.11
2018-08-03T10:40:21.445Z,31.12
2018-08-03T10:42:26.560Z,31.20
2018-08-03T10:44:31.261Z,31.28
2018-08-03T10:46:35.964Z,31.27
2018-08-03T10:48:40.944Z,31.19
2018-08-03T10:50:45.699Z,31.17
2018-08-03T10:52:50.565Z,31.28
2018-08-03T10:54:55.419Z,31.30
2018-08-03T10:57:01.104Z,31.48
2018-08-03T10:59:05.872Z,31.52
2018-08-03T11:01:10.865Z,31.69
2018-08-03T11:03:15.649Z,31.64
2018-08-03T11:05:20.364Z,31.72
2018-08-03T11:07:25.368Z,31.73
2018-08-03T11:09:34.204Z,31.81
2018-08-03T11:11:40.015Z,32.01
2018-08-03T11:13:45.741Z,32.19
2018-08-03T11:15:50.538Z,32.24
2018-08-03T11:17:56.867Z,32.19
2018-08-03T11:20:02.493Z,32.26
2018-08-03T11:22:10.518Z,32.28
2018-08-03T11:24:15.381Z,32.05
2018-08-03T11:26:20.515Z,32.22
2018-08-03T11:28:25.349Z,32.34
2018-08-03T11:30:30.160Z,32.44
2018-08-03T11:32:35.167Z,32.63
2018-08-03T11:34:40.624Z,32.80
2018-08-03T11:36:45.521Z,32.81
2018-08-03T11:38:50.337Z,32.82
2018-08-03T11:40:55.234Z,32.63
2018-08-03T11:43:00.017Z,32.61
2018-08-03T11:45:05.395Z,32.52
2018-08-03T11:47:11.565Z,32.63
2018-08-03T11:49:16.310Z,32.81
2018-08-03T11:51:21.347Z,32.99
2018-08-03T11:53:26.140Z,32.89
2018-08-03T11:55:30.985Z,32.84
2018-08-03T11:57:39.067Z,33.03
2018-08-03T11:59:49.142Z,33.01
2018-08-03T12:01:54.020Z,33.05
2018-08-03T12:03:58.786Z,32.34
2018-08-03T12:06:03.709Z,32.63
2018-08-03T12:08:08.594Z,32.78
2018-08-03T12:10:13.395Z,33.03
2018-08-03T12:12:18.480Z,33.12
2018-08-03T12:14:23.362Z,32.83
2018-08-03T12:16:28.255Z,33.21
2018-08-03T12:18:33.135Z,33.15
2018-08-03T12:20:38.007Z,33.16
2018-08-03T12:22:44.072Z,33.20
2018-08-03T12:24:49.186Z,33.27
2018-08-03T12:26:55.805Z,33.40
2018-08-03T12:29:00.702Z,33.21
2018-08-03T12:31:05.588Z,33.36
2018-08-03T12:33:10.466Z,33.44
2018-08-03T12:35:15.373Z,33.67
2018-08-03T12:37:20.305Z,33.72
2018-08-03T12:39:25.348Z,33.77
2018-08-03T12:41:30.363Z,33.48
2018-08-03T12:43:35.446Z,33.27
2018-08-03T12:45:40.252Z,33.66
2018-08-03T12:47:45.738Z,33.27
2018-08-03T12:49:50.704Z,33.14
2018-08-03T12:51:55.571Z,33.49
2018-08-03T12:54:00.448Z,33.68
2018-08-03T12:56:05.459Z,33.62
2018-08-03T12:58:10.581Z,33.82
2018-08-03T13:00:15.692Z,33.36
2018-08-03T13:02:20.574Z,33.22
2018-08-03T13:04:25.648Z,33.42
2018-08-03T13:06:31.071Z,33.55
2018-08-03T13:08:36.242Z,33.47
2018-08-03T13:10:41.013Z,33.68
2018-08-03T13:12:45.860Z,33.55
2018-08-03T13:14:50.640Z,33.64
2018-08-03T13:16:55.610Z,33.83
2018-08-03T13:19:00.770Z,33.70
2018-08-03T13:21:20.992Z,33.80
2018-08-03T13:23:25.973Z,33.85
2018-08-03T13:25:31.195Z,34.06
2018-08-03T13:27:36.683Z,34.02
2018-08-03T13:29:41.967Z,34.01
2018-08-03T13:31:47.223Z,33.82
2018-08-03T13:33:52.655Z,33.55
2018-08-03T13:35:57.500Z,33.59
2018-08-03T13:38:02.471Z,33.76
2018-08-03T13:40:07.388Z,34.00
2018-08-03T13:42:12.570Z,34.16
2018-08-03T13:44:17.499Z,33.85
2018-08-03T13:46:23.442Z,33.78
2018-08-03T13:48:28.387Z,33.86
2018-08-03T13:50:33.509Z,33.87
2018-08-03T13:52:38.541Z,33.84
2018-08-03T13:54:43.856Z,33.66
2018-08-03T13:56:48.959Z,34.19
2018-08-03T13:58:54.202Z,34.08
2018-08-03T14:01:15.684Z,34.03
2018-08-03T14:03:20.642Z,34.03
2018-08-03T14:05:25.628Z,33.81
2018-08-03T14:07:30.494Z,34.23
2018-08-03T14:09:35.446Z,34.33
2018-08-03T14:11:41.089Z,34.23
2018-08-03T14:13:46.267Z,34.03
2018-08-03T14:15:51.006Z,34.08
2018-08-03T14:18:00.347Z,34.06
2018-08-03T14:20:06.860Z,34.06
2018-08-03T14:22:12.328Z,34.16
2018-08-03T14:24:17.271Z,34.19
2018-08-03T14:26:22.188Z,34.14
2018-08-03T14:28:27.236Z,34.46
2018-08-03T14:30:32.008Z,34.75
2018-08-03T14:32:36.998Z,34.24
2018-08-03T14:34:41.924Z,34.19
2018-08-03T14:36:47.087Z,34.35
2018-08-03T14:38:51.778Z,34.23
2018-08-03T14:40:56.937Z,34.25
2018-08-03T14:43:03.210Z,34.13
2018-08-03T14:45:10.450Z,34.11
2018-08-03T14:47:15.535Z,34.18
2018-08-03T14:49:20.576Z,34.19
2018-08-03T14:51:25.547Z,34.17
2018-08-03T14:53:30.412Z,34.34
2018-08-03T14:55:35.286Z,34.53
2018-08-03T14:57:40.403Z,34.52
2018-08-03T14:59:58.571Z,34.48
2018-08-03T15:02:03.666Z,34.32
2018-08-03T15:04:08.560Z,34.56
2018-08-03T15:06:13.344Z,34.47
2018-08-03T15:08:18.191Z,34.54
2018-08-03T15:10:23.752Z,34.54
2018-08-03T15:12:28.628Z,34.67
2018-08-03T15:14:33.700Z,34.60
2018-08-03T15:16:38.644Z,34.68
2018-08-03T15:18:43.996Z,34.94
2018-08-03T15:20:48.917Z,34.81
2018-08-03T15:22:53.860Z,34.96
2018-08-03T15:24:58.613Z,35.02
2018-08-03T15:27:04.216Z,34.89
2018-08-03T15:29:09.155Z,34.77
2018-08-03T15:31:14.107Z,34.77
2018-08-03T15:33:18.932Z,34.89
2018-08-03T15:35:23.993Z,34.80
2018-08-03T15:37:29.109Z,34.48
2018-08-03T15:39:34.428Z,34.61
2018-08-03T15:41:39.235Z,34.83
2018-08-03T15:43:44.276Z,34.88
2018-08-03T15:45:49.055Z,34.99
2018-08-03T15:47:53.944Z,34.98
2018-08-03T15:49:58.802Z,34.80
2018-08-03T15:52:03.511Z,34.98
2018-08-03T15:54:08.452Z,34.93
2018-08-03T15:56:13.409Z,35.15
2018-08-03T15:58:19.010Z,35.22
2018-08-03T16:00:23.870Z,35.22
2018-08-03T16:02:29.272Z,35.32
2018-08-03T16:04:34.103Z,35.36
2018-08-03T16:06:38.996Z,35.54
2018-08-03T16:08:43.812Z,35.49
2018-08-03T16:10:48.575Z,35.79
2018-08-03T16:12:56.490Z,35.69
2018-08-03T16:15:00.966Z,35.77
2018-08-03T16:17:05.892Z,36.03
2018-08-03T16:19:10.744Z,36.18
2018-08-03T16:21:15.667Z,36.45
2018-08-03T16:23:20.562Z,36.43
2018-08-03T16:25:25.448Z,36.41
2018-08-03T16:27:30.590Z,36.41
2018-08-03T16:29:35.631Z,36.10
2018-08-03T16:31:40.758Z,36.08
2018-08-03T16:33:45.739Z,35.88
2018-08-03T16:35:50.539Z,35.96
2018-08-03T16:37:55.358Z,36.12
2018-08-03T16:40:01.107Z,35.87
2018-08-03T16:42:06.164Z,35.79
2018-08-03T16:44:11.126Z,35.87
2018-08-03T16:46:16.013Z,35.64
2018-08-03T16:48:20.994Z,35.85
2018-08-03T16:50:25.808Z,35.75
2018-08-03T16:52:30.937Z,35.72
2018-08-03T16:54:35.865Z,35.82
2018-08-03T16:56:40.661Z,35.76
2018-08-03T16:58:45.573Z,35.63
2018-08-03T17:00:50.333Z,35.40
2018-08-03T17:02:55.372Z,35.43
2018-08-03T17:05:00.190Z,35.49
2018-08-03T17:07:05.222Z,35.46
2018-08-03T17:09:10.755Z,35.81
2018-08-03T17:11:15.703Z,35.79
2018-08-03T17:13:20.677Z,35.86
2018-08-03T17:15:25.534Z,35.51
2018-08-03T17:17:30.339Z,35.51
2018-08-03T17:19:35.387Z,35.70
2018-08-03T17:21:40.146Z,35.35
2018-08-03T17:23:44.921Z,35.42
2018-08-03T17:25:49.894Z,35.35
2018-08-03T17:27:54.902Z,35.70
2018-08-03T17:29:59.927Z,35.50
2018-08-03T17:32:04.997Z,35.35
2018-08-03T17:34:09.729Z,35.40
2018-08-03T17:36:14.855Z,34.94
2018-08-03T17:38:19.695Z,35.06
2018-08-03T17:40:24.488Z,35.17
2018-08-03T17:42:29.566Z,35.08
2018-08-03T17:44:35.522Z,34.75
2018-08-03T17:46:40.356Z,34.68
2018-08-03T17:48:45.304Z,34.67
2018-08-03T17:50:50.373Z,34.57
2018-08-03T17:52:55.464Z,34.40
2018-08-03T17:55:00.508Z,34.19
2018-08-03T17:57:05.806Z,33.89
2018-08-03T17:59:10.185Z,33.64
2018-08-03T18:01:15.056Z,33.49
2018-08-03T18:03:19.990Z,33.45
2018-08-03T18:05:24.511Z,33.40
2018-08-03T18:07:29.049Z,33.35
2018-08-03T18:09:34.175Z,33.37
2018-08-03T18:11:39.189Z,33.15
2018-08-03T18:13:44.183Z,32.92
2018-08-03T18:15:49.267Z,32.81
2018-08-03T18:17:54.333Z,32.77
2018-08-03T18:19:59.376Z,32.76
2018-08-03T18:22:03.830Z,32.65
2018-08-03T18:24:08.878Z,32.58
2018-08-03T18:26:13.315Z,32.61
2018-08-03T18:28:18.191Z,32.64
2018-08-03T18:30:23.050Z,32.55
2018-08-03T18:32:28.005Z,32.47
2018-08-03T18:34:32.972Z,32.49
2018-08-03T18:36:38.011Z,32.36
2018-08-03T18:38:43.173Z,32.24
2018-08-03T18:40:47.754Z,32.33
2018-08-03T18:42:52.577Z,32.32
2018-08-03T18:44:58.629Z,32.19
2018-08-03T18:47:03.728Z,32.16
2018-08-03T18:49:08.876Z,31.92
2018-08-03T18:51:13.963Z,31.88
2018-08-03T18:53:18.886Z,31.86
2018-08-03T18:55:24.248Z,32.00
2018-08-03T18:57:28.762Z,31.80
2018-08-03T18:59:33.861Z,31.83
2018-08-03T19:01:38.951Z,31.67
2018-08-03T19:03:43.871Z,31.63
2018-08-03T19:05:48.797Z,31.50
2018-08-03T19:07:53.899Z,31.47
2018-08-03T19:09:58.845Z,31.41
2018-08-03T19:12:03.811Z,31.29
2018-08-03T19:14:08.757Z,31.19
2018-08-03T19:16:13.768Z,31.13
2018-08-03T19:18:18.623Z,31.04
2018-08-03T19:20:23.750Z,31.11
2018-08-03T19:22:30.573Z,31.05
2018-08-03T19:24:37.724Z,31.24
2018-08-03T19:26:46.936Z,31.11
2018-08-03T19:28:52.615Z,30.93
2018-08-03T19:30:58.774Z,30.98
2018-08-03T19:33:03.713Z,30.93
2018-08-03T19:35:09.955Z,30.42
2018-08-03T19:37:14.949Z,30.68
2018-08-03T19:39:21.016Z,30.59
2018-08-03T19:41:25.974Z,30.53
2018-08-03T19:43:31.857Z,30.47
2018-08-03T19:45:37.057Z,30.49
2018-08-03T19:47:42.066Z,30.45
2018-08-03T19:49:47.288Z,30.39
2018-08-03T19:51:52.329Z,30.32
2018-08-03T19:53:57.444Z,30.17
2018-08-03T19:56:02.505Z,30.16
2018-08-03T19:58:07.751Z,30.15
2018-08-03T20:00:13.137Z,30.13
2018-08-03T20:02:18.874Z,30.10
2018-08-03T20:04:23.859Z,30.05
2018-08-03T20:06:28.921Z,30.00
2018-08-03T20:08:33.849Z,29.93
2018-08-03T20:10:39.051Z,29.91
2018-08-03T20:12:44.726Z,29.88
2018-08-03T20:14:49.933Z,29.82
2018-08-03T20:16:55.070Z,29.78
2018-08-03T20:21:02.743Z,29.65
2018-08-03T20:23:08.130Z,29.62
2018-08-03T20:25:14.355Z,29.57
2018-08-03T20:27:19.579Z,29.56
2018-08-03T20:29:34.683Z,29.51
2018-08-03T20:31:39.993Z,29.61
2018-08-03T20:33:45.126Z,29.52
2018-08-03T20:35:49.610Z,29.40
2018-08-03T20:37:54.625Z,29.59
2018-08-03T20:39:59.584Z,29.56
2018-08-03T20:42:04.547Z,29.54
2018-08-03T20:44:09.476Z,29.44
2018-08-03T20:46:14.491Z,29.36
2018-08-03T20:48:19.602Z,29.35
2018-08-03T20:50:24.964Z,29.20
2018-08-03T20:52:30.356Z,29.33
2018-08-03T20:54:35.538Z,29.17
2018-08-03T20:56:40.402Z,29.07
2018-08-03T20:58:45.353Z,29.08
2018-08-03T21:00:50.267Z,28.98
2018-08-03T21:02:55.144Z,28.93
2018-08-03T21:04:59.920Z,28.87
2018-08-03T21:07:04.725Z,28.89
2018-08-03T21:09:11.745Z,28.83
2018-08-03T21:11:16.555Z,28.94
2018-08-03T21:13:21.728Z,28.75
2018-08-03T21:15:26.596Z,28.73
2018-08-03T21:17:31.504Z,28.73
2018-08-03T21:19:36.405Z,28.76
2018-08-03T21:21:47.752Z,28.72
2018-08-03T21:23:52.720Z,28.70
2018-08-03T21:25:57.632Z,28.60
2018-08-03T21:28:02.509Z,28.60
2018-08-03T21:30:12.194Z,28.60
2018-08-03T21:32:16.969Z,28.48
2018-08-03T21:34:21.780Z,28.50
2018-08-03T21:36:26.838Z,28.52
2018-08-03T21:38:42.910Z,28.44
2018-08-03T21:40:47.659Z,28.43
2018-08-03T21:42:52.457Z,28.45
2018-08-03T21:44:56.903Z,28.36
2018-08-03T21:47:02.026Z,28.31
2018-08-03T21:49:07.132Z,28.25
2018-08-03T21:51:11.979Z,28.14
2018-08-03T21:53:17.547Z,28.09
2018-08-03T21:55:22.580Z,28.04
2018-08-03T21:57:27.421Z,28.17
2018-08-03T21:59:31.878Z,28.02
2018-08-03T22:01:36.614Z,27.91
2018-08-03T22:03:41.803Z,27.87
2018-08-03T22:05:46.687Z,27.82
2018-08-03T22:07:51.435Z,27.77
2018-08-03T22:09:56.118Z,27.69
2018-08-03T22:12:01.017Z,27.72
2018-08-03T22:14:05.767Z,27.72
2018-08-03T22:16:13.012Z,27.68
2018-08-03T22:18:17.799Z,27.66
2018-08-03T22:20:22.693Z,27.61
2018-08-03T22:22:27.703Z,27.60
2018-08-03T22:24:32.597Z,27.57
2018-08-03T22:26:37.388Z,27.50
2018-08-03T22:28:42.679Z,27.47
2018-08-03T22:30:49.553Z,27.51
2018-08-03T22:32:54.310Z,27.48
2018-08-03T22:34:58.978Z,27.52
2018-08-03T22:37:03.532Z,27.50
2018-08-03T22:39:11.108Z,27.16
2018-08-03T22:41:18.541Z,27.48
2018-08-03T22:43:26.451Z,27.52
2018-08-03T22:45:32.104Z,27.55
2018-08-03T22:47:39.441Z,27.54
2018-08-03T22:49:47.224Z,27.46
2018-08-03T22:51:51.989Z,27.56
2018-08-03T22:53:56.687Z,27.40
2018-08-03T22:56:01.440Z,27.37
2018-08-03T22:58:06.418Z,27.44
2018-08-03T23:00:11.270Z,27.41
2018-08-03T23:02:17.557Z,27.40
2018-08-03T23:04:22.262Z,27.47
2018-08-03T23:06:27.010Z,27.38
2018-08-03T23:08:31.829Z,27.25
2018-08-03T23:10:39.022Z,27.22
2018-08-03T23:12:43.755Z,27.23
2018-08-03T23:14:48.987Z,27.14
2018-08-03T23:16:55.962Z,27.09
2018-08-03T23:19:00.835Z,27.12
2018-08-03T23:21:05.742Z,27.08
2018-08-03T23:23:10.634Z,27.20
2018-08-03T23:25:15.448Z,27.25
2018-08-03T23:27:20.262Z,27.13
2018-08-03T23:29:25.335Z,27.12
2018-08-03T23:31:31.591Z,27.09
2018-08-03T23:33:36.366Z,27.04
2018-08-03T23:35:41.315Z,26.99
2018-08-03T23:37:46.303Z,26.81
2018-08-03T23:39:51.156Z,26.91
2018-08-03T23:41:55.906Z,26.85
2018-08-03T23:44:01.035Z,26.85
2018-08-03T23:46:06.183Z,26.81
2018-08-03T23:48:10.976Z,26.82
2018-08-03T23:50:17.961Z,26.51
2018-08-03T23:52:22.932Z,26.79
2018-08-03T23:54:27.673Z,26.76
2018-08-03T23:56:32.480Z,26.79
2018-08-03T23:58:37.193Z,26.72
